Terminal Aerodrome Forecast
Issued by NWS

Home | Current Version | Previous Version | Text Only | Print | Product List | Glossary On
Versions: 1 2 3 4 5 6 7 8 9 10 11 12 13 14 15 16 17 18 19 20
000
FTUS41 KGYX 221732
TAFHIE
TAF
KHIE 221732Z 2218/2318 23009KT P6SM SCT050 BKN100
     FM222300 21009KT P6SM BKN050 WS020/26045KT
     FM230300 23010G15KT 2SM -SN BKN020=

USA.gov is the U.S. government's official web portal to all federal, state and local government web resources and services.